Eduardo Meneses

Scout - O'Higgins
23 Apr 2028
Sonntag
Verarbeitung

Persönlichkeit

Anpassungsfähigkeit (2) Ehrgeiz (4) Kontroverse (1) Loyalität (6) Druck (14) Professionalität (2) Fairness (1) Temperament (19)

Profil

Trainerstil Demokratisch
Lizenz Nationale A
Entschlossenheit 7
Menschenführung 5
Motivation 10
Disziplin 7
Arbeitszufriedenheit
93%
Ermüdung
0%
Rolle Scout
Gehalt 11.5K p/W
Vertrag 14.03.2029

Leistung

Verhalten Gut
Trainingseffektivität
36%
Spielerentwicklung
55%
Verletzungsprävention
60%
Taktische Umsetzung
45%

Letzte Ereignisse

Spieler begutachtet 7T her
Nahm an einer Scouting-Besprechung teil 7T her
Spieler begutachtet 7T her
Spieler begutachtet 7T her
Spieler begutachtet 7T her
Spieler begutachtet 7T her
Spieler begutachtet 14T her
Spieler begutachtet 14T her

Aktuell beobachtet

74
Spieler Verein Status Fähigkeit Vertrauen Beobachtet Zuletzt beobachtet Letzte Stimme
Joe Rankin-Costello Charlton Athletic Aktiv 123 / 136 40% 1 18.04.2028 -
Adrien Truffert Bournemouth Aktiv 164 / 141 40% 1 18.04.2028 -
Nordi Mukiele Sunderland Aktiv 152 / 135 40% 2 16.04.2028 -
Josh Tymon Swansea City Aktiv 143 / 138 40% 1 16.04.2028 -
Yasin Ayari Middlesbrough Aktiv 147 / 165 40% 1 15.04.2028 -
Ryan Manning Gillingham Aktiv 140 / 135 40% 1 15.04.2028 -
Neco Williams Wrexham Aktiv 167 / 139 40% 2 13.04.2028 -
Nicolas Madsen Queens Park Rangers Aktiv 144 / 128 40% 1 13.04.2028 -
Vitaly Janelt Derby County Aktiv 132 / 159 40% 2 12.04.2028 -
Ethan Ampadu Leeds United Aktiv 156 / 147 40% 1 12.04.2028 -
Andrey Santos Bolton Wanderers Aktiv 154 / 147 40% 2 10.04.2028 -
Max Arfsten Middlesbrough Aktiv 138 / 130 40% 1 10.04.2028 -
Nicolás Domínguez Cardiff City Aktiv 157 / 138 40% 1 08.04.2028 -
Sergio Cubero Eibar Aktiv 132 / 117 40% 1 06.04.2028 -
Victor Kristiansen Stevenage Aktiv 138 / 145 40% 1 21.03.2028 -
Bafodé Diakité Plymouth Argyle Aktiv 133 / 140 40% 1 21.03.2028 -
Sebastián Boselli Getafe Aktiv 126 / 142 40% 2 18.03.2028 -
Marc Bola Watford Aktiv 138 / 135 40% 1 17.03.2028 -
André Wolverhampton Aktiv 168 / 156 40% 1 16.03.2028 -
Edoardo Bove Watford Aktiv 138 / 131 40% 1 16.03.2028 -
Joaquín Tapia San Marcos de Arica Aktiv 84 / 87 42% 1 / 1m 15.03.2028 -
Wilmer Guerrero Universidad de Concepcion Aktiv 82 / 82 30% 1 / 1m 15.03.2028 -
Emiliano Vidal Chamois Niortais Aktiv 118 / 110 40% 1 12.03.2028 -
Danilo Botafogo Aktiv 146 / 149 40% 1 11.03.2028 -
Jorge Moreno Athletic Bilbao Aktiv 135 / 139 40% 1 11.03.2028 -
Álvaro Tejero Leganés Aktiv 135 / 119 40% 1 10.03.2028 -
Joe Rodon Blackburn Rovers Aktiv 137 / 156 40% 1 10.03.2028 -
Japhet Tanganga Sheffield United Aktiv 155 / 127 40% 1 09.03.2028 -
Paulo Henrique Vasco da Gama Aktiv 124 / 120 40% 1 09.03.2028 -
Florentino Luís Ipswich Town Aktiv 135 / 158 40% 1 06.03.2028 -
Timothy Witsel FC Metz Aktiv 143 / 127 40% 1 06.03.2028 -
Edgar Elizalde Defensor Sporting Aktiv 117 / 110 40% 1 07.02.2028 -
Xaver Schlager Nottingham Forest Aktiv 162 / 154 40% 1 07.02.2028 -
Juan Bisanz Huracán Aktiv 130 / 122 40% 1 13.12.2027 -
Victor Hernandez Santa Fe Aktiv 116 / 116 40% 1 10.09.2027 -
Tiago Pucciarelli IF Elfsborg Aktiv 103 / 93 40% 1 10.09.2027 -
Fletcher Holman Swindon Town Aktiv 100 / 93 40% 1 24.06.2027 -
Roberto Iliev Slavia Sofia Aktiv 110 / 96 40% 1 24.06.2027 -
Bryan Carrasco Palestino Aktiv 120 / 113 55% 1 21.06.2027 -
Zane Albarus Shrewsbury Town Aktiv 84 / 98 40% 2 31.05.2027 -
Germán Barbas Burgos Aktiv 91 / 104 40% 2 29.05.2027 -
Caleb Yirenkyi Coventry City Aktiv 142 / 143 40% 3 29.05.2027 -
Ethan Williams Peterborough United Aktiv 109 / 122 40% 1 28.05.2027 -
Eliás Montiel Borussia Dortmund Verhandlung 123 / 119 40% 2 25.05.2027 -
Jeremías Merlo Gimnasia La Plata Aktiv 126 / 124 40% 1 24.05.2027 -
Araphat Mohammed Ashanti Gold Aktiv 103 / 118 40% 1 24.05.2027 -
Mateus Mané Burnley Aktiv 148 / 128 40% 2 23.05.2027 -
Alphadjo Cissé Lecce Aktiv 116 / 124 40% 2 22.05.2027 -
Marcos Arias Metalurh Zaporizhzhia Aktiv 89 / 90 40% 1 21.05.2027 -
Nana Nuhu WAFA Aktiv 77 / 106 40% 2 16.05.2027 -
Peter Amidu Acquah Asante Kotoko Aktiv 77 / 96 40% 1 16.05.2027 -
Mohamadou Kanté Crawley Town Aktiv 105 / 107 40% 2 11.05.2027 -
Mattia Rutigliano Pro Vercelli Aktiv 85 / 114 40% 1 11.05.2027 -
Alexandro Maidana Eibar Aktiv 101 / 109 40% 2 06.05.2027 -
Alex Verón Vélez Aktiv 106 / 110 40% 1 30.04.2027 -
Jan Bürger Northampton Town Aktiv 126 / 123 40% 1 30.04.2027 -
Bazoumana Touré Newcastle United Aktiv 146 / 143 40% 3 26.04.2027 -
Lander Astiazarán Real Sociedad Aktiv 96 / 124 40% 1 25.04.2027 -
Romelle Donovan Brentford Aktiv 124 / 147 40% 1 25.04.2027 -
Othmane Maamma Watford Aktiv 122 / 131 40% 2 21.04.2027 -
Rivaldo Mkhize Black Aces Aktiv 72 / 79 40% 1 21.04.2027 -
Gladson Adjei WAFA Aktiv 99 / 78 40% 1 17.04.2027 -
Jayden Luker Bromley Aktiv 96 / 81 40% 1 17.04.2027 -
Pietro Reggiori Pro Patria Aktiv 104 / 92 40% 1 11.04.2027 -
Cauan Baptistella Dynamo Kyiv Aktiv 95 / 103 40% 1 07.04.2027 -
Jonás Luna Wanderers Aktiv 113 / 122 40% 1 06.04.2027 -
Martim Cunha Porto Aktiv 91 / 105 40% 1 24.03.2027 -
Tomás Abdelnur Santos Laguna Aktiv 78 / 89 40% 1 22.03.2027 -
Eduardo Fernandes Benfica Aktiv 107 / 108 40% 1 16.03.2027 -
Daniel Awuni Aduana Stars Aktiv 98 / 107 40% 1 16.03.2027 -
Oscar Schwartau Norwich City Aktiv 106 / 144 40% 1 07.01.2027 -
Martin Gjorgievski Zbrojovka Brno Aktiv 121 / 111 40% 1 06.01.2027 -
Marco Oroná Antofagasta Aktiv 98 / 97 51% 1 02.12.2026 -
Alejandro Leiva Patronato Aktiv 85 / 97 40% 1 01.08.2026 -